createdAt,value
2018-11-10T00:02:26.319Z,13.3
2018-11-10T00:12:26.401Z,12.3
2018-11-10T00:22:24.225Z,20.5
2018-11-10T00:32:23.871Z,10.9
2018-11-10T00:42:23.776Z,10.7
2018-11-10T00:52:23.270Z,10.4
2018-11-10T01:02:22.792Z,11.6
2018-11-10T01:12:20.618Z,18.1
2018-11-10T01:22:18.496Z,17.5
2018-11-10T01:32:18.579Z,8.7
2018-11-10T01:42:18.148Z,7.2
2018-11-10T01:52:17.723Z,10.8
2018-11-10T02:02:17.202Z,8.3
2018-11-10T02:12:21.057Z,16
2018-11-10T02:22:18.946Z,14.9
2018-11-10T02:32:18.509Z,9.1
2018-11-10T02:42:19.195Z,7.2
2018-11-10T02:52:17.074Z,17.8
2018-11-10T03:02:17.119Z,7.8
2018-11-10T03:12:18.330Z,8.7
2018-11-10T03:22:17.814Z,7.8
2018-11-10T03:32:17.340Z,6.7
2018-11-10T03:42:16.778Z,5.5
2018-11-10T03:52:16.887Z,6.9
2018-11-10T04:02:14.828Z,12.7
2018-11-10T04:12:14.303Z,6.3
2018-11-10T04:22:13.893Z,5.8
2018-11-10T04:32:13.486Z,5.9
2018-11-10T04:42:12.956Z,6.1
2018-11-10T04:52:12.964Z,5.9
2018-11-10T05:02:12.448Z,5.3
2018-11-10T05:12:11.939Z,5.3
2018-11-10T05:22:14.089Z,5.3
2018-11-10T05:32:14.650Z,4.4
2018-11-10T05:42:14.310Z,4.4
2018-11-10T05:52:13.788Z,7.7
2018-11-10T06:02:13.271Z,5.9
2018-11-10T06:12:11.751Z,19.7
2018-11-10T06:22:09.929Z,16.4
2018-11-10T06:32:09.506Z,5.1
2018-11-10T06:42:10.053Z,5
2018-11-10T06:52:07.883Z,12.8
2018-11-10T07:02:07.509Z,15.9
2018-11-10T07:12:07.873Z,12.8
2018-11-10T07:22:08.383Z,6.6
2018-11-10T07:32:07.572Z,12.9
2018-11-10T07:42:08.541Z,5.8
2018-11-10T07:52:08.256Z,4.4
2018-11-10T08:02:07.890Z,3.9
2018-11-10T08:12:08.512Z,4
2018-11-10T08:22:08.952Z,3
2018-11-10T08:28:16.084Z,8.5
2018-11-10T08:38:18.466Z,3
2018-11-10T08:48:18.136Z,3.4
2018-11-10T08:58:20.677Z,4.5
2018-11-10T09:08:21.290Z,4.1
2018-11-10T09:18:20.565Z,8.4
2018-11-10T09:28:20.369Z,3.4
2018-11-10T09:38:20.441Z,3.4
2018-11-10T09:48:20.958Z,3.6
2018-11-10T09:58:21.720Z,3.4
2018-11-10T10:08:33.837Z,3.7
2018-11-10T10:18:34.731Z,3.6
2018-11-10T10:28:35.067Z,4.1
2018-11-10T10:38:38.889Z,3
2018-11-10T10:48:38.510Z,7.9
2018-11-10T10:58:39.149Z,8.5
2018-11-10T11:08:37.719Z,7.8
2018-11-10T11:18:39.864Z,3.7
2018-11-10T11:28:38.204Z,6.8
2018-11-10T11:38:41.461Z,3.2
2018-11-10T11:48:44.044Z,3.4
2018-11-10T11:58:48.524Z,3.2
2018-11-10T12:08:48.066Z,7.1
2018-11-10T12:19:02.714Z,3.6
2018-11-10T12:29:05.762Z,3.3
2018-11-10T12:39:06.866Z,4.3
2018-11-10T12:49:08.517Z,3.9
2018-11-10T12:59:08.691Z,3.7
2018-11-10T13:09:10.700Z,4.4
2018-11-10T13:19:23.959Z,4.3
2018-11-10T13:29:27.185Z,3.8
2018-11-10T13:39:29.663Z,4.8
2018-11-10T13:49:42.785Z,9
2018-11-10T13:59:53.857Z,4.6
2018-11-10T14:09:57.839Z,4.8
2018-11-10T14:19:59.645Z,5
2018-11-10T14:30:02.867Z,5
2018-11-10T14:40:02.763Z,5.1
2018-11-10T14:50:01.126Z,11.3
2018-11-10T15:00:01.815Z,6.8
2018-11-10T15:10:03.318Z,14.1
2018-11-10T15:20:05.273Z,12.5
2018-11-10T15:30:05.062Z,9.2
2018-11-10T15:40:06.406Z,8.7
2018-11-10T15:50:06.398Z,10.9
2018-11-10T16:00:09.589Z,13.1
2018-11-10T16:10:09.409Z,11.6
2018-11-10T16:20:08.904Z,19.6
2018-11-10T16:30:12.716Z,16.5
2018-11-10T16:40:12.361Z,18.6
2018-11-10T16:50:13.614Z,20.6
2018-11-10T17:00:13.383Z,19.2
2018-11-10T17:10:12.158Z,21.6
2018-11-10T17:20:14.122Z,14.1
2018-11-10T17:30:16.619Z,28.7
2018-11-10T17:40:21.113Z,21.6
2018-11-10T17:50:21.298Z,21.6
2018-11-10T18:00:24.718Z,18.7
2018-11-10T18:10:24.692Z,23.9
2018-11-10T18:20:23.584Z,32.4
2018-11-10T18:30:23.691Z,21.9
2018-11-10T18:40:28.206Z,22.2
2018-11-10T18:50:31.342Z,31.2
2018-11-10T19:00:34.412Z,15
2018-11-10T19:10:32.817Z,22
2018-11-10T19:20:33.309Z,14
2018-11-10T19:30:34.460Z,21.4
2018-11-10T19:40:34.461Z,19.8
2018-11-10T19:50:38.262Z,18.4
2018-11-10T20:00:43.553Z,16.4
2018-11-10T20:10:44.625Z,20.8
2018-11-10T20:20:44.914Z,15.3
2018-11-10T20:30:45.729Z,14.4
2018-11-10T20:40:48.184Z,12.5
2018-11-10T20:50:46.492Z,22.3
2018-11-10T21:00:53.520Z,12.6
2018-11-10T21:10:54.134Z,11.3
2018-11-10T21:20:54.234Z,11
2018-11-10T21:30:55.054Z,9.9
2018-11-10T21:40:56.640Z,9.9
2018-11-10T21:50:55.734Z,17.5
2018-11-10T22:00:55.599Z,11.1
2018-11-10T22:11:00.472Z,11.1
2018-11-10T22:20:58.642Z,18.8
2018-11-10T22:30:59.273Z,10
2018-11-10T22:40:59.159Z,11.5
2018-11-10T22:50:58.731Z,10.6
2018-11-10T23:00:58.490Z,8.8
2018-11-10T23:10:58.407Z,9.7
2018-11-10T23:20:56.581Z,15.5
2018-11-10T23:30:55.098Z,15.9
2018-11-10T23:40:57.300Z,7.6
2018-11-10T23:50:57.072Z,8
